Time;durP1;ratioP1;P1;durP2;ratioP2;P2;SDS_P1;SDS_P2;PMS_P1;PMS_P2;Temp;Humidity;BMP_temperature;BMP_pressure;BME280_temperature;BME280_humidity;BME280_pressure;Samples;Min_cycle;Max_cycle;Signal;HPM_P1;HPM_P2
2021/11/11 00:00:41;;;;;;;30.00;20.90;;;5.20;1.00;;;;;;5050801;28;20447;-59
2021/11/11 00:03:07;;;;;;;27.17;21.23;;;;;;;;;;5048835;28;20532;-59
2021/11/11 00:05:33;;;;;;;30.90;21.20;;;5.70;1.00;;;;;;5049388;28;20458;-59
2021/11/11 00:08:00;;;;;;;27.00;19.43;;;5.50;1.00;;;;;;5050323;28;20843;-59
2021/11/11 00:10:27;;;;;;;29.53;20.10;;;5.40;1.00;;;;;;5050274;28;20458;-58
2021/11/11 00:12:54;;;;;;;26.93;21.10;;;5.20;1.00;;;;;;5049536;28;20442;-59
2021/11/11 00:15:20;;;;;;;30.10;19.13;;;;;;;;;;5059026;28;20446;-59
2021/11/11 00:17:46;;;;;;;27.80;20.03;;;5.40;1.00;;;;;;5056634;28;20983;-58
2021/11/11 00:20:15;;;;;;;27.57;21.10;;;5.60;1.00;;;;;;5050235;28;20431;-59
2021/11/11 00:22:42;;;;;;;31.33;21.90;;;5.20;1.00;;;;;;5050459;28;20972;-59
2021/11/11 00:25:09;;;;;;;32.53;21.43;;;5.50;1.00;;;;;;5049356;28;20434;-59
2021/11/11 00:27:35;;;;;;;29.67;20.90;;;5.30;1.00;;;;;;5049524;28;20836;-58
2021/11/11 00:30:01;;;;;;;30.67;21.70;;;5.40;1.00;;;;;;5050066;28;20488;-61
2021/11/11 00:32:26;;;;;;;30.07;21.53;;;5.60;1.00;;;;;;5049615;28;20226;-59
2021/11/11 00:34:53;;;;;;;29.40;19.80;;;;;;;;;;5049794;28;20413;-59
2021/11/11 00:37:20;;;;;;;31.90;20.67;;;5.30;1.00;;;;;;5050921;28;20405;-59
2021/11/11 00:39:47;;;;;;;30.37;19.33;;;5.40;1.00;;;;;;5049957;28;20518;-58
2021/11/11 00:42:13;;;;;;;29.37;19.10;;;;;;;;;;5050292;28;20471;-60
2021/11/11 00:44:39;;;;;;;34.77;22.10;;;5.30;1.00;;;;;;5049591;28;20481;-59
2021/11/11 00:47:05;;;;;;;39.93;22.23;;;;;;;;;;5049874;28;20474;-57
2021/11/11 00:49:30;;;;;;;35.57;21.30;;;5.40;1.00;;;;;;5049251;28;20662;-59
2021/11/11 00:51:56;;;;;;;29.10;20.93;;;5.40;1.00;;;;;;5049455;28;20449;-59
2021/11/11 00:54:22;;;;;;;30.43;20.47;;;;;;;;;;5049226;28;20218;-58
2021/11/11 00:56:48;;;;;;;32.57;21.37;;;5.50;1.00;;;;;;5048918;28;20192;-59
2021/11/11 00:59:14;;;;;;;33.97;22.03;;;;;;;;;;5049597;28;20477;-59
2021/11/11 01:01:40;;;;;;;32.73;22.50;;;;;;;;;;5049191;28;20203;-58
2021/11/11 01:04:06;;;;;;;28.20;21.10;;;;;;;;;;5049224;28;20575;-59
2021/11/11 01:06:31;;;;;;;31.50;22.40;;;5.40;1.00;;;;;;5049381;28;20581;-58
2021/11/11 01:08:57;;;;;;;32.77;22.53;;;5.40;1.00;;;;;;5049238;28;20497;-59
2021/11/11 01:11:25;;;;;;;29.30;22.10;;;5.40;1.00;;;;;;5049400;28;20601;-60
2021/11/11 01:13:51;;;;;;;33.13;22.53;;;;;;;;;;5048776;28;20488;-59
2021/11/11 01:16:17;;;;;;;28.67;20.73;;;5.30;1.00;;;;;;5049075;28;20458;-58
2021/11/11 01:18:43;;;;;;;37.00;22.50;;;5.20;1.00;;;;;;5049274;28;20448;-59
2021/11/11 01:21:09;;;;;;;35.33;22.53;;;;;;;;;;5049744;28;20453;-59
2021/11/11 01:23:36;;;;;;;30.97;21.10;;;;;;;;;;5048850;28;20518;-58
2021/11/11 01:26:03;;;;;;;32.17;22.23;;;;;;;;;;5048287;28;20530;-58
2021/11/11 01:28:29;;;;;;;35.77;22.80;;;4.90;1.00;;;;;;5049441;28;20442;-58
2021/11/11 01:30:55;;;;;;;35.60;22.83;;;;;;;;;;5048510;28;20542;-58
2021/11/11 01:33:21;;;;;;;35.87;23.30;;;5.20;1.00;;;;;;5049729;28;20994;-59
2021/11/11 01:35:47;;;;;;;27.67;20.63;;;4.90;1.00;;;;;;5048860;28;20922;-59
2021/11/11 01:38:13;;;;;;;33.27;21.33;;;;;;;;;;5057137;28;20950;-58
2021/11/11 01:40:39;;;;;;;32.97;20.13;;;5.00;1.00;;;;;;5052876;28;20208;-58
2021/11/11 01:43:06;;;;;;;33.90;22.50;;;;;;;;;;5052877;28;20832;-58
2021/11/11 01:45:35;;;;;;;29.23;21.37;;;5.20;1.00;;;;;;5053407;28;20470;-58
2021/11/11 01:48:02;;;;;;;36.37;22.10;;;5.10;1.00;;;;;;5052371;28;20425;-58
2021/11/11 01:50:29;;;;;;;39.03;21.30;;;5.10;1.00;;;;;;5053039;28;20879;-59
2021/11/11 01:52:56;;;;;;;30.97;21.43;;;5.20;1.00;;;;;;5052542;28;20834;-58
2021/11/11 01:55:22;;;;;;;29.60;22.30;;;;;;;;;;5052004;28;20443;-58
2021/11/11 01:57:47;;;;;;;35.57;22.20;;;5.30;1.00;;;;;;5052485;28;20553;-58
2021/11/11 02:00:18;;;;;;;30.63;21.47;;;5.10;1.00;;;;;;5052056;28;20510;-58
2021/11/11 02:02:44;;;;;;;28.13;19.70;;;4.70;1.00;;;;;;5052738;28;20272;-59
2021/11/11 02:05:10;;;;;;;37.73;21.53;;;;;;;;;;5052199;28;21006;-58
2021/11/11 02:07:35;;;;;;;32.70;22.57;;;5.10;1.00;;;;;;5052506;28;20449;-58
2021/11/11 02:10:02;;;;;;;36.83;22.93;;;;;;;;;;5051126;28;20919;-57
2021/11/11 02:12:31;;;;;;;35.73;23.23;;;5.10;1.00;;;;;;5052529;28;20578;-58
2021/11/11 02:14:57;;;;;;;31.30;21.20;;;4.80;1.00;;;;;;5052731;28;20584;-57
2021/11/11 02:17:28;;;;;;;29.87;20.70;;;5.00;1.00;;;;;;5051417;28;20541;-59
2021/11/11 02:20:04;;;;;;;31.50;22.03;;;4.90;1.00;;;;;;5052752;28;20435;-59
2021/11/11 02:22:30;;;;;;;28.67;20.33;;;5.10;1.00;;;;;;5052270;28;20513;-59
2021/11/11 02:24:56;;;;;;;29.27;20.27;;;;;;;;;;5052144;28;20544;-58
2021/11/11 02:27:22;;;;;;;30.17;20.07;;;5.00;1.00;;;;;;5052309;28;20222;-58
2021/11/11 02:29:48;;;;;;;34.33;21.07;;;;;;;;;;5052161;28;20443;-57
2021/11/11 02:32:15;;;;;;;28.43;19.37;;;5.30;1.00;;;;;;5051847;28;20449;-59
2021/11/11 02:34:41;;;;;;;26.47;20.23;;;5.00;1.00;;;;;;5051346;28;20453;-59
2021/11/11 02:37:07;;;;;;;32.37;21.03;;;5.00;1.00;;;;;;5051668;28;20449;-58
2021/11/11 02:39:36;;;;;;;32.00;21.50;;;4.90;1.00;;;;;;5051585;28;20477;-58
2021/11/11 02:42:02;;;;;;;30.37;22.60;;;5.10;1.00;;;;;;5051918;28;20443;-58
2021/11/11 02:44:28;;;;;;;28.77;20.30;;;5.00;1.00;;;;;;5051748;28;20454;-58
2021/11/11 02:46:56;;;;;;;36.70;20.40;;;4.90;1.00;;;;;;5051318;28;20473;-58
2021/11/11 02:49:22;;;;;;;31.10;20.63;;;4.80;1.00;;;;;;5051020;28;20932;-57
2021/11/11 02:51:48;;;;;;;34.47;21.13;;;4.70;1.00;;;;;;5051979;28;20540;-58
2021/11/11 02:54:14;;;;;;;31.57;20.50;;;5.20;1.00;;;;;;5051363;28;20446;-57
2021/11/11 02:56:40;;;;;;;30.03;20.13;;;4.40;1.00;;;;;;5051552;28;21027;-58
2021/11/11 02:59:06;;;;;;;33.90;21.90;;;5.10;1.00;;;;;;5051727;28;20219;-58
2021/11/11 03:01:32;;;;;;;32.93;21.73;;;;;;;;;;5051291;28;20302;-58
2021/11/11 03:03:58;;;;;;;33.43;20.57;;;4.90;1.00;;;;;;5051518;28;20451;-59
2021/11/11 03:06:24;;;;;;;34.37;22.63;;;;;;;;;;5051145;28;20445;-59
2021/11/11 03:08:49;;;;;;;40.20;25.20;;;5.00;1.00;;;;;;5050807;28;20795;-58
2021/11/11 03:11:15;;;;;;;33.07;22.73;;;;;;;;;;5051092;28;20481;-58
2021/11/11 03:13:41;;;;;;;36.53;22.40;;;4.80;1.00;;;;;;5051274;28;20269;-58
2021/11/11 03:16:07;;;;;;;30.60;21.57;;;;;;;;;;5051526;28;20947;-58
2021/11/11 03:18:33;;;;;;;33.87;22.13;;;4.80;1.00;;;;;;5050787;28;20253;-58
2021/11/11 03:21:00;;;;;;;34.43;23.43;;;;;;;;;;5051340;28;20445;-59
2021/11/11 03:23:26;;;;;;;31.60;22.20;;;4.90;1.00;;;;;;5051188;28;20185;-59
2021/11/11 03:25:52;;;;;;;33.80;22.67;;;;;;;;;;5051500;28;20435;-58
2021/11/11 03:28:18;;;;;;;38.33;22.27;;;;;;;;;;5050809;28;21002;-59
2021/11/11 03:30:44;;;;;;;42.13;23.00;;;4.60;1.00;;;;;;5051218;28;21062;-58
2021/11/11 03:33:10;;;;;;;30.03;22.13;;;4.70;1.00;;;;;;5050332;28;20454;-58
2021/11/11 03:35:36;;;;;;;34.17;22.73;;;5.10;1.00;;;;;;5051105;28;20446;-59
2021/11/11 03:38:05;;;;;;;35.87;24.07;;;4.90;1.00;;;;;;5053580;28;20556;-58
2021/11/11 03:40:34;;;;;;;36.40;22.57;;;4.80;1.00;;;;;;5050977;28;20437;-59
2021/11/11 03:43:01;;;;;;;38.10;22.40;;;4.80;1.00;;;;;;5058501;28;20972;-60
2021/11/11 03:45:28;;;;;;;41.93;24.37;;;4.70;1.00;;;;;;5050512;28;20450;-59
2021/11/11 03:47:54;;;;;;;35.17;22.67;;;4.80;1.00;;;;;;5050245;28;20451;-59
2021/11/11 03:50:20;;;;;;;41.27;23.60;;;4.80;1.00;;;;;;5050863;28;20442;-58
2021/11/11 03:52:48;;;;;;;39.77;24.83;;;5.00;1.00;;;;;;5049992;28;20443;-58
2021/11/11 03:55:14;;;;;;;42.63;26.17;;;;;;;;;;5050185;28;20447;-58
2021/11/11 03:57:41;;;;;;;39.10;23.77;;;4.20;1.00;;;;;;5050405;28;21093;-59
2021/11/11 04:00:10;;;;;;;38.47;23.90;;;4.70;1.00;;;;;;5051719;28;20524;-59
2021/11/11 04:02:36;;;;;;;38.83;23.87;;;4.60;1.00;;;;;;5050317;28;20530;-58
2021/11/11 04:05:02;;;;;;;36.30;25.20;;;4.70;1.00;;;;;;5049774;28;20588;-58
2021/11/11 04:07:28;;;;;;;40.10;23.90;;;4.70;1.00;;;;;;5050250;28;20175;-58
2021/11/11 04:09:53;;;;;;;34.73;23.57;;;4.60;1.00;;;;;;5049850;28;20951;-59
2021/11/11 04:12:19;;;;;;;36.20;22.47;;;;;;;;;;5053486;28;20680;-58
2021/11/11 04:14:45;;;;;;;32.57;22.77;;;;;;;;;;5050680;28;20181;-58
2021/11/11 04:17:11;;;;;;;31.90;22.17;;;;;;;;;;5049939;28;20443;-59
2021/11/11 04:19:37;;;;;;;34.67;22.07;;;;;;;;;;5049792;28;20473;-58
2021/11/11 04:22:04;;;;;;;30.33;21.20;;;;;;;;;;5050113;28;20437;-58
2021/11/11 04:24:30;;;;;;;36.13;23.70;;;4.80;1.00;;;;;;5050353;28;20463;-57
2021/11/11 04:27:06;;;;;;;39.30;24.13;;;4.90;1.00;;;;;;5050225;28;20482;-58
2021/11/11 04:29:34;;;;;;;38.93;23.73;;;4.80;1.00;;;;;;5049884;28;20575;-58
2021/11/11 04:32:02;;;;;;;37.60;24.73;;;4.80;1.00;;;;;;5049343;28;20478;-58
2021/11/11 04:34:32;;;;;;;41.03;23.93;;;5.00;1.00;;;;;;5049845;28;20449;-58
2021/11/11 05:05:09;;;;;;;42.40;26.70;;;;;;;;;;5049287;28;20990;-58
2021/11/11 05:07:34;;;;;;;44.03;25.30;;;4.40;1.00;;;;;;5049182;28;21010;-59
2021/11/11 05:10:00;;;;;;;35.00;24.43;;;4.50;1.00;;;;;;5048394;28;20592;-61
2021/11/11 05:12:26;;;;;;;41.23;25.40;;;;;;;;;;5048477;28;20207;-59
2021/11/11 05:14:52;;;;;;;44.27;26.53;;;;;;;;;;5049423;28;20182;-59
2021/11/11 05:17:22;;;;;;;34.87;24.00;;;;;;;;;;5056683;28;21009;-59
2021/11/11 05:19:49;;;;;;;40.47;25.73;;;4.70;1.00;;;;;;5050516;28;20546;-59
2021/11/11 05:22:15;;;;;;;38.97;24.97;;;;;;;;;;5048953;28;20803;-59
2021/11/11 05:24:41;;;;;;;44.87;25.57;;;;;;;;;;5048940;28;20441;-58
2021/11/11 05:27:08;;;;;;;40.47;27.20;;;;;;;;;;5049070;28;20509;-59
2021/11/11 05:29:33;;;;;;;49.90;30.83;;;4.70;1.00;;;;;;5049203;28;20449;-59
2021/11/11 05:31:59;;;;;;;79.37;41.67;;;;;;;;;;5049084;28;20450;-58
2021/11/11 05:34:25;;;;;;;75.63;42.07;;;;;;;;;;5048111;28;20274;-59
2021/11/11 05:36:51;;;;;;;72.47;37.30;;;4.60;1.00;;;;;;5048920;28;20533;-59
2021/11/11 05:39:17;;;;;;;59.83;37.13;;;;;;;;;;5048848;28;21011;-58
2021/11/11 05:41:43;;;;;;;51.90;32.43;;;;;;;;;;5048721;28;20197;-59
2021/11/11 05:44:09;;;;;;;52.13;30.83;;;;;;;;;;5052153;28;20475;-58
2021/11/11 05:46:35;;;;;;;57.40;33.23;;;4.40;1.00;;;;;;5049053;28;20474;-57
2021/11/11 05:49:00;;;;;;;53.47;33.43;;;4.40;1.00;;;;;;5048432;28;20590;-60
2021/11/11 05:51:26;;;;;;;54.20;32.70;;;4.30;1.00;;;;;;5049304;28;20192;-58
2021/11/11 05:53:52;;;;;;;51.30;34.37;;;4.20;1.00;;;;;;5048654;28;20196;-57
2021/11/11 05:56:18;;;;;;;56.63;33.93;;;;;;;;;;5048490;28;20442;-59
2021/11/11 05:58:44;;;;;;;57.20;33.77;;;;;;;;;;5047609;28;20545;-59
2021/11/11 06:01:10;;;;;;;54.33;33.10;;;4.30;1.00;;;;;;5049102;28;20524;-58
2021/11/11 06:03:36;;;;;;;54.53;31.93;;;4.60;1.00;;;;;;5048678;28;20944;-58
2021/11/11 06:06:01;;;;;;;64.03;33.60;;;4.20;1.00;;;;;;5048638;28;20578;-58
2021/11/11 06:08:27;;;;;;;55.53;33.87;;;;;;;;;;5047839;28;20195;-59
2021/11/11 06:10:53;;;;;;;53.60;32.60;;;4.50;1.00;;;;;;5046872;28;20181;-59
2021/11/11 06:13:21;;;;;;;54.90;32.30;;;4.70;1.00;;;;;;5048272;28;20447;-58
2021/11/11 06:15:47;;;;;;;51.67;30.97;;;;;;;;;;5048293;28;20449;-59
2021/11/11 06:18:15;;;;;;;49.57;31.40;;;;;;;;;;5058037;28;20472;-58
2021/11/11 06:20:44;;;;;;;61.13;33.80;;;4.80;1.00;;;;;;5049081;28;20499;-60
2021/11/11 06:23:11;;;;;;;55.07;31.27;;;5.00;1.00;;;;;;5049947;28;20439;-59
2021/11/11 06:25:39;;;;;;;58.53;31.43;;;;;;;;;;5052602;28;20463;-59
2021/11/11 06:28:05;;;;;;;57.63;31.07;;;;;;;;;;5052257;28;20450;-59
2021/11/11 06:30:31;;;;;;;59.70;32.23;;;5.00;1.00;;;;;;5051954;28;20442;-59
2021/11/11 06:32:57;;;;;;;60.73;32.53;;;;;;;;;;5054400;28;20417;-58
2021/11/11 06:35:23;;;;;;;56.23;31.13;;;;;;;;;;5050415;28;20191;-59
2021/11/11 06:37:49;;;;;;;54.00;32.30;;;;;;;;;;5051845;28;20956;-59
2021/11/11 06:40:15;;;;;;;62.23;34.80;;;;;;;;;;5051754;28;20492;-59
2021/11/11 06:42:40;;;;;;;51.17;30.20;;;5.50;1.00;;;;;;5050336;28;21064;-59
2021/11/11 06:45:14;;;;;;;50.93;30.27;;;5.60;1.00;;;;;;5050643;28;20537;-59
2021/11/11 06:47:40;;;;;;;62.70;32.77;;;5.70;1.00;;;;;;5051374;28;20184;-59
2021/11/11 06:50:07;;;;;;;50.63;30.53;;;5.70;1.00;;;;;;5051656;28;20501;-59
2021/11/11 06:52:33;;;;;;;62.30;32.63;;;;;;;;;;5051283;28;20439;-60
2021/11/11 06:54:59;;;;;;;51.70;31.13;;;;;;;;;;5051659;28;20949;-60
2021/11/11 06:57:25;;;;;;;55.00;32.00;;;;;;;;;;5051486;28;20483;-59
2021/11/11 06:59:50;;;;;;;53.87;31.40;;;5.70;1.00;;;;;;5051699;28;20506;-61
2021/11/11 07:02:16;;;;;;;52.57;30.40;;;;;;;;;;5050464;28;20976;-60
2021/11/11 07:04:43;;;;;;;51.90;29.97;;;6.20;1.00;;;;;;5050943;28;20630;-61
2021/11/11 07:07:09;;;;;;;52.97;31.20;;;;;;;;;;5050747;28;20748;-61
2021/11/11 07:09:35;;;;;;;49.17;30.63;;;;;;;;;;5047029;28;20429;-60
2021/11/11 07:12:01;;;;;;;52.20;30.40;;;;;;;;;;5050125;28;20805;-61
2021/11/11 07:14:26;;;;;;;48.53;29.37;;;6.20;1.00;;;;;;5049929;28;20458;-58
2021/11/11 07:16:53;;;;;;;39.77;28.07;;;;;;;;;;5050771;28;20420;-59
2021/11/11 07:19:18;;;;;;;50.63;28.60;;;6.20;1.00;;;;;;5051407;28;20204;-58
2021/11/11 07:21:44;;;;;;;50.70;27.97;;;6.50;1.00;;;;;;5055143;28;20971;-59
2021/11/11 07:24:10;;;;;;;52.50;30.57;;;;;;;;;;5050597;28;20196;-57
2021/11/11 07:26:36;;;;;;;50.17;29.93;;;;;;;;;;5050938;28;20192;-58
2021/11/11 07:29:02;;;;;;;49.43;29.63;;;6.60;1.00;;;;;;5051123;28;20442;-58
2021/11/11 07:31:28;;;;;;;47.97;29.33;;;6.50;1.00;;;;;;5050844;28;20472;-58
2021/11/11 07:33:54;;;;;;;46.80;27.63;;;;;;;;;;5049897;28;20443;-59
2021/11/11 07:36:20;;;;;;;47.17;27.27;;;6.70;1.00;;;;;;5050146;28;20420;-58
2021/11/11 07:38:45;;;;;;;51.07;27.30;;;6.70;1.00;;;;;;5049855;28;20467;-59
2021/11/11 07:41:11;;;;;;;44.83;27.20;;;6.90;1.00;;;;;;5050398;28;20192;-59
2021/11/11 07:43:37;;;;;;;43.07;26.20;;;;;;;;;;5049827;28;20280;-60
2021/11/11 07:46:07;;;;;;;42.27;27.20;;;6.90;1.00;;;;;;5048934;28;20682;-59
2021/11/11 07:48:33;;;;;;;46.47;26.83;;;6.70;1.00;;;;;;5050071;28;20510;-59
2021/11/11 07:51:00;;;;;;;42.03;26.10;;;;;;;;;;5049837;28;20509;-60
2021/11/11 07:53:26;;;;;;;41.20;25.03;;;;;;;;;;5050232;28;20797;-58
2021/11/11 07:55:52;;;;;;;44.00;28.10;;;;;;;;;;5050335;28;20458;-60
2021/11/11 07:58:18;;;;;;;38.80;25.50;;;;;;;;;;5048622;28;20860;-59
2021/11/11 08:00:45;;;;;;;43.67;27.00;;;;;;;;;;5050654;28;20435;-57
2021/11/11 08:03:12;;;;;;;41.60;25.30;;;7.30;1.00;;;;;;5052406;28;20537;-58
2021/11/11 08:05:39;;;;;;;42.10;25.33;;;6.80;1.00;;;;;;5055684;28;20414;-56
2021/11/11 08:08:06;;;;;;;37.23;24.93;;;7.40;1.00;;;;;;5060006;28;20793;-58
2021/11/11 08:10:32;;;;;;;42.80;24.37;;;7.50;1.00;;;;;;5049058;28;20951;-58
2021/11/11 08:12:58;;;;;;;38.00;24.53;;;7.80;1.00;;;;;;5051688;28;20454;-58
2021/11/11 08:15:24;;;;;;;37.30;24.67;;;;;;;;;;5061444;28;20434;-57
2021/11/11 08:17:50;;;;;;;37.03;23.50;;;;;;;;;;5056335;28;20191;-57
2021/11/11 08:20:17;;;;;;;40.47;25.00;;;;;;;;;;5050168;28;20449;-57
2021/11/11 08:22:43;;;;;;;35.57;23.27;;;7.90;1.00;;;;;;5054586;28;20479;-58
2021/11/11 08:25:11;;;;;;;38.60;23.37;;;8.00;1.00;;;;;;5046631;28;20455;-57
2021/11/11 08:27:37;;;;;;;33.37;22.20;;;8.10;1.00;;;;;;5050823;28;20525;-59
2021/11/11 08:30:05;;;;;;;37.43;22.87;;;;;;;;;;5050818;28;20453;-57
2021/11/11 08:32:31;;;;;;;34.23;23.40;;;8.10;1.00;;;;;;5050540;28;20533;-58
2021/11/11 08:34:56;;;;;;;30.57;22.33;;;8.20;1.00;;;;;;5047690;28;20962;-57
2021/11/11 08:37:22;;;;;;;32.83;21.87;;;;;;;;;;5050248;28;20806;-57
2021/11/11 08:39:49;;;;;;;30.07;19.93;;;;;;;;;;5049658;28;20204;-57
2021/11/11 08:42:16;;;;;;;28.33;21.03;;;8.60;1.00;;;;;;5049762;28;20409;-58
2021/11/11 08:44:42;;;;;;;32.43;22.00;;;8.60;1.00;;;;;;5048895;28;20475;-57
2021/11/11 08:47:12;;;;;;;35.77;21.03;;;8.50;1.00;;;;;;5047158;28;21034;-59
2021/11/11 08:49:39;;;;;;;28.20;19.70;;;8.60;1.00;;;;;;5056151;28;20481;-58
2021/11/11 08:52:05;;;;;;;30.10;21.53;;;;;;;;;;5048543;28;20772;-57
2021/11/11 08:54:31;;;;;;;28.40;19.70;;;8.90;1.00;;;;;;5048893;28;20429;-59
2021/11/11 08:56:57;;;;;;;28.87;20.30;;;;;;;;;;5048902;28;20480;-59
2021/11/11 08:59:24;;;;;;;28.83;18.40;;;8.90;1.00;;;;;;5049701;28;20270;-58
2021/11/11 09:01:51;;;;;;;29.20;18.67;;;9.20;1.00;;;;;;5051625;28;20793;-59
2021/11/11 09:04:18;;;;;;;28.40;19.40;;;8.90;1.00;;;;;;5049811;28;20414;-60
2021/11/11 09:06:47;;;;;;;24.53;18.40;;;9.00;1.00;;;;;;5048468;28;20458;-58
2021/11/11 09:09:13;;;;;;;28.53;18.83;;;;;;;;;;5048811;28;20443;-58
2021/11/11 09:11:39;;;;;;;26.27;17.50;;;;;;;;;;5049477;28;20506;-60
2021/11/11 09:14:06;;;;;;;24.77;16.30;;;9.60;1.00;;;;;;5049104;28;20420;-58
2021/11/11 09:16:32;;;;;;;29.43;17.43;;;;;;;;;;5066183;28;20413;-57
2021/11/11 09:18:59;;;;;;;24.67;16.77;;;;;;;;;;5048669;28;20806;-58
2021/11/11 09:21:24;;;;;;;23.87;16.77;;;9.80;1.00;;;;;;5049769;28;20417;-57
2021/11/11 09:23:50;;;;;;;25.13;17.60;;;9.90;1.00;;;;;;5054321;28;20442;-57
2021/11/11 09:26:17;;;;;;;28.00;17.40;;;10.20;1.00;;;;;;5048501;28;20545;-57
2021/11/11 09:28:45;;;;;;;23.93;17.37;;;9.70;1.00;;;;;;5049511;28;20451;-56
2021/11/11 09:31:12;;;;;;;22.90;16.47;;;9.90;1.00;;;;;;5057840;28;20500;-58
2021/11/11 09:33:43;;;;;;;20.83;15.67;;;9.80;1.00;;;;;;5054138;28;20472;-58
2021/11/11 09:36:09;;;;;;;23.47;15.67;;;;;;;;;;5049406;28;20442;-57
2021/11/11 09:38:35;;;;;;;26.23;16.20;;;;;;;;;;5049017;28;20557;-58
2021/11/11 09:41:02;;;;;;;23.60;16.30;;;10.10;1.00;;;;;;5049555;28;20496;-58
2021/11/11 09:43:27;;;;;;;24.13;15.70;;;;;;;;;;5060373;28;20428;-58
2021/11/11 09:45:53;;;;;;;23.20;16.03;;;10.20;1.00;;;;;;5050178;28;20449;-59
2021/11/11 09:48:19;;;;;;;22.03;15.37;;;;;;;;;;5051189;28;20439;-58
2021/11/11 09:50:46;;;;;;;23.87;17.10;;;10.20;1.00;;;;;;5049879;28;20181;-57
2021/11/11 09:53:15;;;;;;;24.20;16.33;;;10.20;1.00;;;;;;5049020;28;20451;-58
2021/11/11 09:58:41;;;;;;;26.03;17.07;;;;;;;;;;5053967;28;20923;-58
2021/11/11 10:01:09;;;;;;;18.93;14.83;;;10.30;1.00;;;;;;5053134;28;20537;-58
2021/11/11 10:03:41;;;;;;;22.97;16.07;;;10.40;1.00;;;;;;5053269;28;20471;-58
2021/11/11 10:06:12;;;;;;;23.40;16.07;;;10.60;1.00;;;;;;5054607;28;20456;-58
2021/11/11 10:08:47;;;;;;;23.50;15.83;;;10.70;1.00;;;;;;5052790;28;20444;-60
2021/11/11 10:11:32;;;;;;;22.07;15.37;;;10.70;1.00;;;;;;5062499;28;20442;-58
2021/11/11 10:14:06;;;;;;;22.80;14.93;;;10.50;1.00;;;;;;5051804;28;20500;-59
2021/11/11 10:16:56;;;;;;;23.53;15.10;;;10.80;1.00;;;;;;5051705;28;20419;-58
2021/11/11 10:19:22;;;;;;;21.00;15.20;;;;;;;;;;5055078;28;20553;-58
2021/11/11 10:21:54;;;;;;;20.80;15.23;;;10.80;1.00;;;;;;5056789;28;20453;-59
2021/11/11 10:24:29;;;;;;;20.40;15.90;;;10.70;1.00;;;;;;5052905;28;20918;-58
2021/11/11 10:26:59;;;;;;;21.80;15.90;;;10.70;1.00;;;;;;5052620;28;20425;-58
2021/11/11 10:29:30;;;;;;;25.27;15.13;;;;;;;;;;5052223;28;20453;-58
2021/11/11 10:32:04;;;;;;;25.20;16.57;;;10.70;1.00;;;;;;5051653;28;20791;-58
2021/11/11 10:34:31;;;;;;;22.90;14.70;;;;;;;;;;5051401;28;20425;-57
2021/11/11 10:36:57;;;;;;;20.60;16.17;;;;;;;;;;5064136;28;20420;-59
2021/11/11 10:39:31;;;;;;;22.90;15.60;;;10.90;1.00;;;;;;5053392;28;20525;-59
2021/11/11 10:41:58;;;;;;;23.77;16.90;;;11.20;1.00;;;;;;5059708;28;20408;-59
2021/11/11 10:44:31;;;;;;;20.67;15.20;;;11.00;1.00;;;;;;5053311;28;20941;-59
2021/11/11 10:47:05;;;;;;;23.97;15.17;;;11.00;1.00;;;;;;5055734;28;20491;-58
2021/11/11 10:49:32;;;;;;;25.10;16.40;;;;;;;;;;5060481;28;20474;-58
2021/11/11 10:52:20;;;;;;;25.40;16.97;;;11.10;1.00;;;;;;5057503;28;20532;-58
2021/11/11 10:55:03;;;;;;;20.93;15.50;;;11.20;1.00;;;;;;5051913;28;20425;-57
2021/11/11 10:58:02;;;;;;;24.23;15.87;;;11.20;1.00;;;;;;5051499;28;20422;-59
2021/11/11 11:00:40;;;;;;;19.03;14.20;;;11.20;1.00;;;;;;5051944;28;20807;-58
2021/11/11 11:03:06;;;;;;;21.50;15.87;;;;;;;;;;5051806;28;20409;-58
2021/11/11 11:05:37;;;;;;;22.53;16.93;;;;;;;;;;5055092;28;20435;-57
2021/11/11 11:08:07;;;;;;;19.17;14.67;;;11.40;1.00;;;;;;5052021;28;20406;-57
2021/11/11 11:10:33;;;;;;;23.63;15.57;;;11.40;1.00;;;;;;5049761;28;20405;-58
2021/11/11 11:13:09;;;;;;;24.37;17.10;;;11.50;1.00;;;;;;5053769;28;20413;-58
2021/11/11 11:15:39;;;;;;;24.53;15.93;;;;;;;;;;5060027;28;20407;-60
2021/11/11 11:18:06;;;;;;;21.97;15.73;;;11.60;1.00;;;;;;5058451;28;20433;-58
2021/11/11 11:20:33;;;;;;;22.37;15.83;;;11.60;1.00;;;;;;5050391;28;20439;-58
2021/11/11 11:23:32;;;;;;;20.10;15.63;;;11.70;1.00;;;;;;5050945;28;20413;-57
2021/11/11 11:26:15;;;;;;;21.33;14.90;;;11.90;1.00;;;;;;5047658;28;20451;-59
2021/11/11 11:28:50;;;;;;;21.10;16.10;;;11.60;1.00;;;;;;5049868;28;20450;-58
2021/11/11 11:31:29;;;;;;;19.23;15.60;;;11.70;1.00;;;;;;5051350;28;20419;-58
2021/11/11 11:33:55;;;;;;;23.33;15.80;;;11.80;1.00;;;;;;5051723;28;20516;-58
2021/11/11 11:36:33;;;;;;;19.57;14.67;;;11.70;1.00;;;;;;5049673;28;20472;-56
2021/11/11 11:38:59;;;;;;;21.10;16.17;;;;;;;;;;5058363;28;20456;-57
2021/11/11 11:41:31;;;;;;;23.10;15.30;;;11.70;1.00;;;;;;5050114;28;21199;-58
2021/11/11 11:44:14;;;;;;;17.40;13.37;;;11.80;1.00;;;;;;5049856;28;20418;-58
2021/11/11 11:46:40;;;;;;;25.00;16.60;;;;;;;;;;5051923;28;20527;-59
2021/11/11 11:49:06;;;;;;;23.03;16.20;;;11.70;1.00;;;;;;5054933;28;20424;-59
2021/11/11 11:51:35;;;;;;;19.77;15.33;;;;;;;;;;5056971;28;20447;-59
2021/11/11 11:54:07;;;;;;;22.00;16.10;;;12.00;1.00;;;;;;5050982;28;20455;-58
2021/11/11 11:56:48;;;;;;;22.77;17.30;;;;;;;;;;5050823;28;20409;-59
2021/11/11 11:59:17;;;;;;;18.70;14.67;;;11.90;1.00;;;;;;5051260;28;20871;-59
2021/11/11 12:07:10;;;;;;;23.70;16.87;;;;;;;;;;5050551;28;20767;-59
2021/11/11 12:09:42;;;;;;;21.03;15.10;;;8.20;1.00;;;;;;5048315;28;20484;-58
2021/11/11 12:39:44;;;;;;;20.10;15.27;;;12.00;1.00;;;;;;5055455;28;20490;-57
2021/11/11 12:42:30;;;;;;;19.00;15.33;;;11.80;1.00;;;;;;5051274;28;20465;-60
2021/11/11 12:45:21;;;;;;;22.27;15.60;;;12.00;1.00;;;;;;5048624;28;20898;-58
2021/11/11 12:48:15;;;;;;;22.83;15.73;;;12.00;1.00;;;;;;5059211;28;20556;-58
2021/11/11 12:51:01;;;;;;;20.73;15.50;;;11.80;1.00;;;;;;5058506;28;20460;-58
2021/11/11 12:53:38;;;;;;;22.07;16.43;;;11.60;1.00;;;;;;5054845;28;20417;-58
2021/11/11 12:56:10;;;;;;;22.80;16.00;;;11.80;1.00;;;;;;5049433;28;20423;-58
2021/11/11 12:58:43;;;;;;;24.00;17.30;;;11.90;1.00;;;;;;5048700;28;20812;-58
2021/11/11 13:01:10;;;;;;;22.60;15.53;;;;;;;;;;5056268;28;20443;-56
2021/11/11 13:03:56;;;;;;;24.00;15.73;;;11.90;1.00;;;;;;5048501;28;20650;-57
2021/11/11 13:06:45;;;;;;;22.47;15.67;;;11.80;1.00;;;;;;5053263;28;20463;-56
2021/11/11 13:09:22;;;;;;;21.10;14.67;;;11.70;1.00;;;;;;5048996;28;20432;-57
2021/11/11 13:12:13;;;;;;;24.80;16.47;;;11.90;1.00;;;;;;5049948;28;20413;-57
2021/11/11 13:14:47;;;;;;;20.40;14.80;;;11.70;1.00;;;;;;5047971;28;20428;-59
2021/11/11 13:17:16;;;;;;;23.00;15.67;;;11.40;1.00;;;;;;5049763;28;20851;-62
2021/11/11 13:19:47;;;;;;;33.37;21.60;;;;;;;;;;5058612;28;20492;-60
2021/11/11 13:22:25;;;;;;;22.60;15.90;;;11.50;1.00;;;;;;5064862;28;20481;-60
2021/11/11 13:54:56;;;;;;;25.37;17.10;;;11.10;1.00;;;;;;5052544;28;20964;-61
2021/11/11 15:16:19;;;;;;;30.57;19.80;;;8.70;1.00;;;;;;5036852;28;20505;-59
2021/11/11 15:44:42;;;;;;;32.00;20.13;;;8.30;1.00;;;;;;5052457;28;20442;-59
2021/11/11 15:57:29;;;;;;;36.73;23.27;;;7.90;1.00;;;;;;5051020;28;20412;-60
2021/11/11 16:25:05;;;;;;;40.77;22.97;;;7.20;1.00;;;;;;5027886;28;20496;-59
2021/11/11 16:27:31;;;;;;;33.10;21.70;;;7.50;1.00;;;;;;5045123;28;20446;-59
2021/11/11 16:30:02;;;;;;;38.73;23.90;;;7.40;1.00;;;;;;5049045;28;20447;-58
2021/11/11 16:32:28;;;;;;;35.40;22.13;;;;;;;;;;5044458;28;20447;-60
2021/11/11 16:34:54;;;;;;;37.87;23.30;;;;;;;;;;5046713;28;20537;-58
2021/11/11 16:37:20;;;;;;;41.60;23.80;;;;;;;;;;5047056;28;20846;-59
2021/11/11 16:39:46;;;;;;;36.93;23.37;;;7.40;1.00;;;;;;5046899;28;20849;-59
2021/11/11 16:42:11;;;;;;;43.00;25.10;;;7.10;1.00;;;;;;5044369;28;20485;-58
2021/11/11 16:44:37;;;;;;;38.33;22.60;;;;;;;;;;5047678;28;20276;-58
2021/11/11 16:47:03;;;;;;;35.03;22.50;;;;;;;;;;5048436;28;20234;-60
2021/11/11 16:49:32;;;;;;;36.33;24.20;;;7.20;1.00;;;;;;5048989;28;20450;-58
2021/11/11 16:51:59;;;;;;;38.47;23.10;;;7.20;1.00;;;;;;5047047;28;20450;-59
2021/11/11 16:54:25;;;;;;;40.37;25.20;;;;;;;;;;5047734;28;20485;-59
2021/11/11 16:56:51;;;;;;;36.03;23.30;;;;;;;;;;5043601;28;20846;-60
2021/11/11 16:59:17;;;;;;;47.73;24.53;;;5.90;1.00;;;;;;5043713;28;20481;-59
2021/11/11 17:01:44;;;;;;;39.90;23.03;;;;;;;;;;5030349;28;20919;-58
2021/11/11 17:04:11;;;;;;;40.47;23.40;;;;;;;;;;5047913;28;20443;-59
2021/11/11 17:06:37;;;;;;;38.27;22.60;;;7.00;1.00;;;;;;5045831;28;20446;-59
2021/11/11 17:09:05;;;;;;;45.07;25.70;;;6.90;1.00;;;;;;5047856;28;20450;-61
2021/11/11 17:11:31;;;;;;;39.70;23.33;;;7.00;1.00;;;;;;5047952;28;20474;-60
2021/11/11 17:13:57;;;;;;;42.10;25.10;;;;;;;;;;5049825;28;20446;-59